createdAt,value
2023-01-25T00:01:08.942Z,54.05
2023-01-25T00:03:59.196Z,54.15
2023-01-25T00:06:48.588Z,55.53
2023-01-25T00:09:39.131Z,55.92
2023-01-25T00:12:28.356Z,51.35
2023-01-25T00:15:17.674Z,84.00
2023-01-25T00:18:07.009Z,48.95
2023-01-25T00:20:56.242Z,53.25
2023-01-25T00:23:45.872Z,67.72
2023-01-25T00:26:37.202Z,71.20
2023-01-25T00:29:26.487Z,73.00
2023-01-25T00:32:47.143Z,77.28
2023-01-25T00:35:36.635Z,43.65
2023-01-25T00:38:31.811Z,45.45
2023-01-25T00:41:21.091Z,40.15
2023-01-25T00:44:11.783Z,54.67
2023-01-25T00:47:01.026Z,55.63
2023-01-25T00:49:50.461Z,66.72
2023-01-25T00:52:40.694Z,45.13
2023-01-25T00:55:30.068Z,68.70
2023-01-25T00:58:19.303Z,70.72
2023-01-25T01:01:11.277Z,57.78
2023-01-25T01:04:00.597Z,84.85
2023-01-25T01:06:49.777Z,53.00
2023-01-25T01:09:39.019Z,55.75
2023-01-25T01:12:28.412Z,56.70
2023-01-25T01:15:17.862Z,63.55
2023-01-25T01:18:08.736Z,51.08
2023-01-25T01:20:57.963Z,55.95
2023-01-25T01:23:47.357Z,49.90
2023-01-25T01:26:36.868Z,69.60
2023-01-25T01:29:26.186Z,64.75
2023-01-25T01:32:15.647Z,96.57
2023-01-25T01:35:08.103Z,82.13
2023-01-25T01:37:57.825Z,77.57
2023-01-25T01:40:48.208Z,78.15
2023-01-25T01:43:38.101Z,100.47
2023-01-25T01:49:28.928Z,62.00
2023-01-25T01:52:30.462Z,164.55
2023-01-25T01:55:24.411Z,99.75
2023-01-25T01:58:15.984Z,101.63
2023-01-25T02:01:05.985Z,69.05
2023-01-25T02:03:56.684Z,84.57
2023-01-25T02:06:53.246Z,104.18
2023-01-25T02:09:45.506Z,114.78
2023-01-25T02:12:35.055Z,69.18
2023-01-25T02:15:24.332Z,74.07
2023-01-25T02:18:13.972Z,75.97
2023-01-25T02:21:03.710Z,64.70
2023-01-25T02:24:01.922Z,60.17
2023-01-25T02:26:53.493Z,94.72
2023-01-25T02:29:43.698Z,86.57
2023-01-25T02:32:34.189Z,58.40
2023-01-25T02:35:26.666Z,70.82
2023-01-25T02:38:19.315Z,47.50
2023-01-25T02:41:13.230Z,44.72
2023-01-25T02:44:10.105Z,51.90
2023-01-25T02:47:00.692Z,71.75
2023-01-25T02:49:49.921Z,50.05
2023-01-25T02:52:40.506Z,55.60
2023-01-25T02:55:30.330Z,67.45
2023-01-25T02:58:19.816Z,78.68
2023-01-25T03:01:11.196Z,55.80
2023-01-25T03:04:03.334Z,52.55
2023-01-25T03:06:52.900Z,62.13
2023-01-25T03:09:42.389Z,39.95
2023-01-25T03:12:31.785Z,52.45
2023-01-25T03:15:21.493Z,50.95
2023-01-25T03:18:12.423Z,63.65
2023-01-25T03:21:08.578Z,89.13
2023-01-25T03:24:00.440Z,70.00
2023-01-25T03:27:13.566Z,91.25
2023-01-25T03:30:13.470Z,57.38
2023-01-25T03:33:02.851Z,55.38
2023-01-25T03:35:55.865Z,76.25
2023-01-25T03:41:34.411Z,66.30
2023-01-25T03:44:23.857Z,52.35
2023-01-25T03:47:13.210Z,85.05
2023-01-25T03:50:02.481Z,84.20
2023-01-25T03:52:59.457Z,75.70
2023-01-25T03:55:50.473Z,134.20
2023-01-25T03:58:41.493Z,54.17
2023-01-25T04:01:31.613Z,197.43
2023-01-25T04:04:21.171Z,59.45
2023-01-25T04:07:11.520Z,60.13
2023-01-25T04:10:04.140Z,45.97
2023-01-25T04:12:54.388Z,61.20
2023-01-25T04:15:43.681Z,49.90
2023-01-25T04:18:42.689Z,87.90
2023-01-25T04:21:32.507Z,56.42
2023-01-25T04:24:21.763Z,74.45
2023-01-25T04:27:12.540Z,106.55
2023-01-25T04:30:13.351Z,55.33
2023-01-25T04:33:08.158Z,129.88
2023-01-25T04:35:57.634Z,58.53
2023-01-25T04:38:47.496Z,53.78
2023-01-25T04:41:37.578Z,87.13
2023-01-25T04:44:29.416Z,53.67
2023-01-25T04:47:20.733Z,88.72
2023-01-25T04:50:11.600Z,89.80
2023-01-25T04:53:01.092Z,69.95
2023-01-25T04:55:52.703Z,57.20
2023-01-25T04:58:42.069Z,113.35
2023-01-25T05:01:33.722Z,172.18
2023-01-25T05:04:26.634Z,166.90
2023-01-25T05:07:17.032Z,88.07
2023-01-25T05:10:09.327Z,90.50
2023-01-25T05:13:06.119Z,103.25
2023-01-25T05:15:58.057Z,81.43
2023-01-25T05:18:49.473Z,89.05
2023-01-25T05:22:01.322Z,101.70
2023-01-25T05:25:01.942Z,79.85
2023-01-25T05:27:50.790Z,117.15
2023-01-25T05:31:06.983Z,85.85
2023-01-25T05:33:59.175Z,203.27
2023-01-25T05:36:48.438Z,99.05
2023-01-25T05:39:38.231Z,71.47
2023-01-25T05:42:27.612Z,89.72
2023-01-25T05:45:17.118Z,74.45
2023-01-25T05:48:08.695Z,91.45
2023-01-25T05:51:00.918Z,69.38
2023-01-25T05:53:51.424Z,75.13
2023-01-25T05:56:40.774Z,155.98
2023-01-25T05:59:30.582Z,52.20
2023-01-25T06:02:22.122Z,78.45
2023-01-25T06:05:12.215Z,137.40
2023-01-25T06:08:02.978Z,72.97
2023-01-25T06:11:08.831Z,93.53
2023-01-25T06:13:59.651Z,88.72
2023-01-25T06:16:49.222Z,75.07
2023-01-25T06:19:57.090Z,143.35
2023-01-25T06:22:57.955Z,69.50
2023-01-25T06:25:48.662Z,72.07
2023-01-25T06:28:39.006Z,91.80
2023-01-25T06:31:28.386Z,130.20
2023-01-25T06:34:17.641Z,75.68
2023-01-25T06:37:07.015Z,66.60
2023-01-25T06:39:56.360Z,178.35
2023-01-25T06:42:47.002Z,70.30
2023-01-25T06:45:36.226Z,70.18
2023-01-25T06:48:25.639Z,77.82
2023-01-25T06:51:17.099Z,67.40
2023-01-25T06:54:06.402Z,82.30
2023-01-25T06:56:55.692Z,87.32
2023-01-25T06:59:46.337Z,76.03
2023-01-25T07:02:35.557Z,123.10
2023-01-25T07:05:25.154Z,127.82
2023-01-25T07:08:14.457Z,80.57
2023-01-25T07:11:06.091Z,74.45
2023-01-25T07:13:55.274Z,78.70
2023-01-25T07:16:45.995Z,77.32
2023-01-25T07:19:35.264Z,74.70
2023-01-25T07:22:24.570Z,69.97
2023-01-25T07:25:13.793Z,78.75
2023-01-25T07:28:03.104Z,70.22
2023-01-25T07:30:52.554Z,90.97
2023-01-25T07:33:43.694Z,139.38
2023-01-25T07:36:32.996Z,77.40
2023-01-25T07:39:22.257Z,87.30
2023-01-25T07:42:11.537Z,60.40
2023-01-25T07:45:01.367Z,91.20
2023-01-25T07:47:50.548Z,72.93
2023-01-25T07:50:41.597Z,166.07
2023-01-25T07:53:30.928Z,95.32
2023-01-25T07:56:22.887Z,81.13
2023-01-25T07:59:12.651Z,84.90
2023-01-25T08:02:01.934Z,92.53
2023-01-25T08:04:51.386Z,87.15
2023-01-25T08:07:41.994Z,85.10
2023-01-25T08:10:31.217Z,79.80
2023-01-25T08:13:20.414Z,75.53
2023-01-25T08:16:10.504Z,183.15
2023-01-25T08:19:03.311Z,80.18
2023-01-25T08:21:52.765Z,70.10
2023-01-25T08:24:43.558Z,88.13
2023-01-25T08:27:32.844Z,71.90
2023-01-25T08:30:22.392Z,87.97
2023-01-25T08:33:11.615Z,92.95
2023-01-25T08:36:00.879Z,155.30
2023-01-25T08:38:50.162Z,60.55
2023-01-25T08:41:42.297Z,81.78
2023-01-25T08:44:31.646Z,71.50
2023-01-25T08:47:20.905Z,87.10
2023-01-25T08:50:12.370Z,115.15
2023-01-25T08:53:01.759Z,74.68
2023-01-25T08:55:51.461Z,81.35
2023-01-25T08:58:44.135Z,74.60
2023-01-25T09:01:33.934Z,131.68
2023-01-25T09:04:28.418Z,72.88
2023-01-25T09:07:17.889Z,105.88
2023-01-25T09:10:09.691Z,99.93
2023-01-25T09:12:59.361Z,92.53
2023-01-25T09:15:50.348Z,98.47
2023-01-25T09:18:41.512Z,76.10
2023-01-25T09:21:31.236Z,136.55
2023-01-25T09:24:20.544Z,79.13
2023-01-25T09:27:09.862Z,103.13
2023-01-25T09:30:02.343Z,95.03
2023-01-25T09:32:54.148Z,118.25
2023-01-25T09:35:50.116Z,108.93
2023-01-25T09:38:39.446Z,196.52
2023-01-25T09:42:06.662Z,80.65
2023-01-25T09:45:23.699Z,98.50
2023-01-25T09:48:28.427Z,108.75
2023-01-25T09:51:27.380Z,124.57
2023-01-25T09:54:20.892Z,136.93
2023-01-25T09:57:19.018Z,134.73
2023-01-25T10:00:19.100Z,111.80
2023-01-25T10:03:21.670Z,116.32
2023-01-25T10:06:14.315Z,103.63
2023-01-25T10:09:17.122Z,116.63
2023-01-25T10:12:17.316Z,98.13
2023-01-25T10:15:21.026Z,129.35
2023-01-25T10:18:28.089Z,89.32
2023-01-25T10:21:28.375Z,104.43
2023-01-25T10:25:07.994Z,88.93
2023-01-25T10:28:21.851Z,86.30
2023-01-25T10:31:20.636Z,72.05
2023-01-25T10:34:21.138Z,107.25
2023-01-25T10:37:16.222Z,94.50
2023-01-25T10:40:16.241Z,85.63
2023-01-25T10:43:14.383Z,93.30
2023-01-25T10:46:04.178Z,83.13
2023-01-25T10:48:53.449Z,97.80
2023-01-25T10:51:44.106Z,88.47
2023-01-25T10:54:33.517Z,96.72
2023-01-25T10:57:25.982Z,105.60
2023-01-25T11:00:30.137Z,86.70
2023-01-25T11:03:22.988Z,100.38
2023-01-25T11:06:12.657Z,111.63
2023-01-25T11:09:24.108Z,91.65
2023-01-25T11:12:21.393Z,100.88
2023-01-25T11:15:26.627Z,97.13
2023-01-25T11:18:22.944Z,118.22
2023-01-25T11:21:18.527Z,106.30
2023-01-25T11:24:19.784Z,106.78
2023-01-25T11:27:21.260Z,129.77
2023-01-25T11:30:17.278Z,107.15
2023-01-25T11:33:13.161Z,133.68
2023-01-25T11:36:21.187Z,130.02
2023-01-25T11:39:31.605Z,155.95
2023-01-25T11:42:35.579Z,167.50
2023-01-25T11:46:05.565Z,122.30
2023-01-25T11:49:20.452Z,190.43
2023-01-25T11:52:27.451Z,113.53
2023-01-25T11:55:27.413Z,114.80
2023-01-25T11:58:38.101Z,112.72
2023-01-25T12:01:37.455Z,97.80
2023-01-25T12:05:21.031Z,63.65
2023-01-25T12:08:28.149Z,62.70
2023-01-25T12:11:35.559Z,81.07
2023-01-25T12:14:41.880Z,72.85
2023-01-25T12:17:57.487Z,93.50
2023-01-25T12:21:08.399Z,89.57
2023-01-25T12:24:12.980Z,103.57
2023-01-25T12:27:21.152Z,84.15
2023-01-25T12:30:21.570Z,86.97
2023-01-25T12:33:20.106Z,63.00
2023-01-25T12:36:19.122Z,85.40
2023-01-25T12:39:18.031Z,59.53
2023-01-25T12:42:18.694Z,73.78
2023-01-25T12:45:16.644Z,56.95
2023-01-25T12:48:18.232Z,73.18
2023-01-25T12:51:07.625Z,51.08
2023-01-25T12:53:58.761Z,56.30
2023-01-25T12:56:59.028Z,60.67
2023-01-25T12:59:58.359Z,65.25
2023-01-25T13:03:18.360Z,76.38
2023-01-25T13:06:19.737Z,88.28
2023-01-25T13:09:17.808Z,83.75
2023-01-25T13:12:12.558Z,98.63
2023-01-25T13:15:03.149Z,98.97
2023-01-25T13:17:52.460Z,86.28
2023-01-25T13:20:50.947Z,53.72
2023-01-25T13:23:47.350Z,66.80
2023-01-25T13:26:49.778Z,61.58
2023-01-25T13:29:48.206Z,63.78
2023-01-25T13:33:06.502Z,61.47
2023-01-25T13:35:55.752Z,70.28
2023-01-25T13:38:45.091Z,67.25
2023-01-25T13:41:34.427Z,59.92
2023-01-25T13:44:29.498Z,61.97
2023-01-25T13:47:22.485Z,64.88
2023-01-25T13:50:23.774Z,60.08
2023-01-25T13:53:23.180Z,59.30
2023-01-25T13:56:29.263Z,53.60
2023-01-25T13:59:29.288Z,76.60
2023-01-25T14:02:23.043Z,61.53
2023-01-25T14:05:23.398Z,58.25
2023-01-25T14:08:12.983Z,60.35
2023-01-25T14:11:02.849Z,60.03
2023-01-25T14:14:01.708Z,52.80
2023-01-25T14:19:57.233Z,51.67
2023-01-25T14:22:51.865Z,62.70
2023-01-25T14:25:42.715Z,46.53
2023-01-25T14:28:32.339Z,44.85
2023-01-25T14:31:29.408Z,42.25
2023-01-25T14:34:20.727Z,45.83
2023-01-25T14:37:20.859Z,39.38
2023-01-25T14:40:14.989Z,38.97
2023-01-25T14:43:04.342Z,45.47
2023-01-25T14:45:53.746Z,72.82
2023-01-25T14:48:45.196Z,46.42
2023-01-25T14:51:37.383Z,46.28
2023-01-25T14:54:30.396Z,40.10
2023-01-25T14:57:36.012Z,36.57
2023-01-25T15:00:31.873Z,36.03
2023-01-25T15:03:23.192Z,48.67
2023-01-25T15:06:15.532Z,42.35
2023-01-25T15:09:05.386Z,38.70
2023-01-25T15:12:02.144Z,35.38
2023-01-25T15:14:55.937Z,41.47
2023-01-25T15:17:47.613Z,40.10
2023-01-25T15:20:39.558Z,41.72
2023-01-25T15:23:30.938Z,38.58
2023-01-25T15:26:23.709Z,49.33
2023-01-25T15:29:17.026Z,40.55
2023-01-25T15:32:19.017Z,42.88
2023-01-25T15:35:15.111Z,72.68
2023-01-25T15:38:04.420Z,35.78
2023-01-25T15:40:53.916Z,45.42
2023-01-25T15:43:43.382Z,50.78
2023-01-25T15:46:33.784Z,37.60
2023-01-25T15:49:28.299Z,28.77
2023-01-25T15:52:17.965Z,41.05
2023-01-25T15:55:08.504Z,45.88
2023-01-25T15:57:58.490Z,39.85
2023-01-25T16:00:49.456Z,40.03
2023-01-25T16:03:41.521Z,42.45
2023-01-25T16:06:40.120Z,36.75
2023-01-25T16:09:33.423Z,38.38
2023-01-25T16:12:22.934Z,35.60
2023-01-25T16:15:12.978Z,41.20
2023-01-25T16:18:02.311Z,38.85
2023-01-25T16:20:52.055Z,35.40
2023-01-25T16:23:43.358Z,35.78
2023-01-25T16:26:32.788Z,37.15
2023-01-25T16:29:23.104Z,39.53
2023-01-25T16:32:12.770Z,46.15
2023-01-25T16:35:02.137Z,41.15
2023-01-25T16:37:51.920Z,40.75
2023-01-25T16:40:42.715Z,31.85
2023-01-25T16:43:42.489Z,42.50
2023-01-25T16:46:32.401Z,31.48
2023-01-25T16:49:26.290Z,37.75
2023-01-25T16:52:15.634Z,26.92
2023-01-25T16:55:05.531Z,37.63
2023-01-25T16:57:56.231Z,36.40
2023-01-25T17:00:46.274Z,42.75
2023-01-25T17:03:35.911Z,36.72
2023-01-25T17:06:29.301Z,39.58
2023-01-25T17:09:24.928Z,37.03
2023-01-25T17:12:14.855Z,36.22
2023-01-25T17:15:06.665Z,32.60
2023-01-25T17:17:55.815Z,34.70
2023-01-25T17:20:44.996Z,33.45
2023-01-25T17:23:36.245Z,38.10
2023-01-25T17:26:26.585Z,32.67
2023-01-25T17:29:15.825Z,30.25
2023-01-25T17:32:06.493Z,73.55
2023-01-25T17:34:59.281Z,49.25
2023-01-25T17:37:48.522Z,34.03
2023-01-25T17:40:37.833Z,55.45
2023-01-25T17:43:28.157Z,34.10
2023-01-25T17:46:23.119Z,33.85
2023-01-25T17:49:16.818Z,39.25
2023-01-25T17:52:06.180Z,32.25
2023-01-25T17:54:55.400Z,38.05
2023-01-25T17:57:44.631Z,28.10
2023-01-25T18:00:34.619Z,44.72
2023-01-25T18:03:23.835Z,38.42
2023-01-25T18:06:16.985Z,29.73
2023-01-25T18:11:56.719Z,39.22
2023-01-25T18:14:46.159Z,33.95
2023-01-25T18:17:38.227Z,42.03
2023-01-25T18:20:28.699Z,38.28
2023-01-25T18:23:19.761Z,34.17
2023-01-25T18:26:19.034Z,34.58
2023-01-25T18:29:46.938Z,44.00
2023-01-25T18:32:36.115Z,41.85
2023-01-25T18:35:25.373Z,35.58
2023-01-25T18:38:15.392Z,29.25
2023-01-25T18:41:06.558Z,35.53
2023-01-25T18:43:57.110Z,38.83
2023-01-25T18:46:48.094Z,38.22
2023-01-25T18:49:37.364Z,44.65
2023-01-25T18:52:27.252Z,31.08
2023-01-25T18:55:16.851Z,43.22
2023-01-25T18:58:07.559Z,45.80
2023-01-25T19:01:04.750Z,50.17
2023-01-25T19:03:54.326Z,51.85
2023-01-25T19:06:43.769Z,53.88
2023-01-25T19:09:33.182Z,59.63
2023-01-25T19:12:22.550Z,51.25
2023-01-25T19:15:13.550Z,52.13
2023-01-25T19:18:03.182Z,51.20
2023-01-25T19:20:52.484Z,50.60
2023-01-25T19:23:42.319Z,65.45
2023-01-25T19:26:31.897Z,42.92
2023-01-25T19:29:21.296Z,49.92
2023-01-25T19:32:11.996Z,50.10
2023-01-25T19:35:01.177Z,48.42
2023-01-25T19:37:50.441Z,45.80
2023-01-25T19:40:39.954Z,38.03
2023-01-25T19:43:29.223Z,44.75
2023-01-25T19:46:20.700Z,44.95
2023-01-25T19:49:13.328Z,41.53
2023-01-25T19:52:02.538Z,74.78
2023-01-25T19:54:51.850Z,87.82
2023-01-25T19:57:41.119Z,81.68
2023-01-25T20:00:30.304Z,52.40
2023-01-25T20:03:19.705Z,39.88
2023-01-25T20:06:11.926Z,45.65
2023-01-25T20:09:01.184Z,57.33
2023-01-25T20:11:50.369Z,41.40
2023-01-25T20:14:41.401Z,48.03
2023-01-25T20:17:30.532Z,49.38
2023-01-25T20:20:20.155Z,39.22
2023-01-25T20:23:10.728Z,65.00
2023-01-25T20:26:01.830Z,37.03
2023-01-25T20:28:53.629Z,42.72
2023-01-25T20:31:45.243Z,37.38
2023-01-25T20:34:34.496Z,34.78
2023-01-25T20:37:23.778Z,45.78
2023-01-25T20:40:15.872Z,69.97
2023-01-25T20:43:05.421Z,39.63
2023-01-25T20:45:55.054Z,45.47
2023-01-25T20:48:45.268Z,38.65
2023-01-25T20:51:35.126Z,44.83
2023-01-25T20:54:24.332Z,37.63
2023-01-25T20:57:14.979Z,38.47
2023-01-25T21:00:04.782Z,31.15
2023-01-25T21:02:53.959Z,31.42
2023-01-25T21:05:51.566Z,37.45
2023-01-25T21:08:41.689Z,45.08
2023-01-25T21:11:30.932Z,39.03
2023-01-25T21:14:21.905Z,39.58
2023-01-25T21:17:11.534Z,50.08
2023-01-25T21:20:00.718Z,54.75
2023-01-25T21:22:49.888Z,56.92
2023-01-25T21:25:39.085Z,45.53
2023-01-25T21:28:28.787Z,42.42
2023-01-25T21:31:21.607Z,42.92
2023-01-25T21:34:11.776Z,43.03
2023-01-25T21:37:01.184Z,38.80
2023-01-25T21:39:50.443Z,47.17
2023-01-25T21:42:39.716Z,39.60
2023-01-25T21:45:45.922Z,40.25
2023-01-25T21:48:54.020Z,34.97
2023-01-25T21:51:49.805Z,38.80
2023-01-25T21:54:39.491Z,40.92
2023-01-25T21:57:28.670Z,30.85
2023-01-25T22:00:20.653Z,32.58
2023-01-25T22:03:10.340Z,47.95
2023-01-25T22:06:01.024Z,44.10
2023-01-25T22:08:50.234Z,40.58
2023-01-25T22:11:39.498Z,44.28
2023-01-25T22:14:30.524Z,46.90
2023-01-25T22:17:22.661Z,49.88
2023-01-25T22:20:13.436Z,40.70
2023-01-25T22:23:04.101Z,34.13
2023-01-25T22:26:03.534Z,37.42
2023-01-25T22:28:55.380Z,41.22
2023-01-25T22:31:44.566Z,43.65
2023-01-25T22:34:33.991Z,40.47
2023-01-25T22:37:23.251Z,41.75
2023-01-25T22:40:15.249Z,45.67
2023-01-25T22:43:04.542Z,36.67
2023-01-25T22:45:54.579Z,55.38
2023-01-25T22:48:44.018Z,43.75
2023-01-25T22:51:33.806Z,44.25
2023-01-25T22:54:23.072Z,43.22
2023-01-25T22:57:13.691Z,39.97
2023-01-25T23:00:02.935Z,32.10
2023-01-25T23:02:52.258Z,35.75
2023-01-25T23:05:41.587Z,41.83
2023-01-25T23:08:33.637Z,30.33
2023-01-25T23:11:25.758Z,48.75
2023-01-25T23:14:33.817Z,34.05
2023-01-25T23:17:42.482Z,34.70
2023-01-25T23:20:32.061Z,39.45
2023-01-25T23:23:21.211Z,34.58
2023-01-25T23:26:10.722Z,35.78
2023-01-25T23:28:59.930Z,35.05
2023-01-25T23:31:50.885Z,42.72
2023-01-25T23:34:40.849Z,41.95
2023-01-25T23:37:30.158Z,32.10
2023-01-25T23:40:19.599Z,46.75
2023-01-25T23:43:08.909Z,31.00
2023-01-25T23:45:58.156Z,30.00
2023-01-25T23:48:48.917Z,35.05
2023-01-25T23:51:38.192Z,32.88
2023-01-25T23:54:28.112Z,32.28
2023-01-25T23:57:17.384Z,30.15
